createdAt,value
2023-06-17T00:00:28.639Z,12.23
2023-06-17T00:03:01.132Z,12.05
2023-06-17T00:05:33.375Z,13.70
2023-06-17T00:08:05.697Z,12.73
2023-06-17T00:10:37.918Z,12.18
2023-06-17T00:13:10.256Z,12.90
2023-06-17T00:15:43.786Z,13.88
2023-06-17T00:18:21.302Z,12.15
2023-06-17T00:20:54.628Z,13.93
2023-06-17T00:23:26.803Z,12.20
2023-06-17T00:25:58.948Z,11.32
2023-06-17T00:28:31.182Z,12.23
2023-06-17T00:31:40.923Z,12.82
2023-06-17T00:34:13.082Z,13.70
2023-06-17T00:36:45.316Z,15.65
2023-06-17T00:39:17.393Z,13.30
2023-06-17T00:41:49.528Z,12.43
2023-06-17T00:44:24.691Z,12.88
2023-06-17T00:46:58.664Z,12.80
2023-06-17T00:49:45.299Z,13.77
2023-06-17T00:52:39.350Z,14.10
2023-06-17T00:55:12.382Z,13.65
2023-06-17T00:57:47.311Z,16.45
2023-06-17T01:00:20.200Z,17.05
2023-06-17T01:02:54.037Z,18.75
2023-06-17T01:05:26.765Z,19.25
2023-06-17T01:08:37.461Z,17.65
2023-06-17T01:11:16.316Z,16.77
2023-06-17T01:13:52.094Z,19.35
2023-06-17T01:16:26.853Z,18.17
2023-06-17T01:18:59.471Z,18.25
2023-06-17T01:21:32.760Z,20.00
2023-06-17T01:24:09.148Z,17.50
2023-06-17T01:26:41.695Z,19.98
2023-06-17T01:29:13.909Z,18.30
2023-06-17T01:31:49.926Z,21.38
2023-06-17T01:34:39.022Z,19.02
2023-06-17T01:37:15.204Z,18.38
2023-06-17T01:39:50.948Z,18.13
2023-06-17T01:42:32.900Z,17.65
2023-06-17T01:45:08.064Z,18.73
2023-06-17T01:47:40.831Z,21.33
2023-06-17T01:50:13.122Z,20.95
2023-06-17T01:52:45.501Z,20.15
2023-06-17T01:55:19.444Z,18.85
2023-06-17T01:57:51.861Z,18.63
2023-06-17T02:00:24.226Z,18.42
2023-06-17T02:02:56.499Z,20.52
2023-06-17T02:05:28.864Z,20.08
2023-06-17T02:08:02.702Z,22.80
2023-06-17T02:10:35.271Z,20.17
2023-06-17T02:13:09.437Z,19.27
2023-06-17T02:15:44.047Z,18.25
2023-06-17T02:18:16.381Z,18.52
2023-06-17T02:20:48.776Z,17.33
2023-06-17T02:23:21.405Z,19.67
2023-06-17T02:25:53.687Z,19.25
2023-06-17T02:28:26.656Z,19.52
2023-06-17T02:30:58.815Z,17.50
2023-06-17T02:33:31.176Z,17.00
2023-06-17T02:36:03.969Z,17.50
2023-06-17T02:38:37.264Z,18.98
2023-06-17T02:41:09.592Z,19.80
2023-06-17T02:43:41.959Z,17.80
2023-06-17T02:46:14.224Z,18.23
2023-06-17T02:48:46.425Z,17.90
2023-06-17T02:51:18.653Z,19.58
2023-06-17T02:53:51.462Z,19.83
2023-06-17T02:56:23.871Z,20.27
2023-06-17T02:58:56.020Z,19.70
2023-06-17T03:01:30.079Z,19.70
2023-06-17T03:04:05.032Z,19.80
2023-06-17T03:06:37.471Z,19.33
2023-06-17T03:09:09.912Z,18.58
2023-06-17T03:11:42.134Z,19.52
2023-06-17T03:14:20.862Z,20.23
2023-06-17T03:16:53.396Z,18.90
2023-06-17T03:19:26.622Z,19.05
2023-06-17T03:21:58.761Z,17.75
2023-06-17T03:24:30.981Z,19.08
2023-06-17T03:27:03.317Z,19.23
2023-06-17T03:29:38.030Z,21.02
2023-06-17T03:32:10.487Z,22.30
2023-06-17T03:34:44.210Z,21.33
2023-06-17T03:37:16.580Z,19.25
2023-06-17T03:39:54.001Z,18.48
2023-06-17T03:42:26.155Z,19.77
2023-06-17T03:44:58.315Z,21.98
2023-06-17T03:47:30.533Z,18.77
2023-06-17T03:50:02.683Z,19.42
2023-06-17T03:52:35.251Z,21.05
2023-06-17T03:55:08.022Z,21.98
2023-06-17T03:57:40.187Z,20.50
2023-06-17T04:00:12.874Z,19.77
2023-06-17T04:02:48.774Z,18.85
2023-06-17T04:05:21.694Z,18.95
2023-06-17T04:07:55.227Z,18.40
2023-06-17T04:10:27.811Z,19.60
2023-06-17T04:13:00.008Z,17.33
2023-06-17T04:15:32.199Z,16.67
2023-06-17T04:18:04.572Z,19.58
2023-06-17T04:20:37.052Z,18.30
2023-06-17T04:23:09.329Z,19.35
2023-06-17T04:25:42.358Z,19.27
2023-06-17T04:28:19.027Z,18.55
2023-06-17T04:30:52.943Z,15.88
2023-06-17T04:33:25.995Z,17.52
2023-06-17T04:37:06.039Z,19.70
2023-06-17T04:39:38.306Z,18.90
2023-06-17T04:42:17.573Z,19.70
2023-06-17T04:44:54.023Z,18.90
2023-06-17T04:47:26.216Z,18.10
2023-06-17T04:49:59.140Z,18.02
2023-06-17T04:52:32.407Z,17.45
2023-06-17T04:55:05.053Z,18.52
2023-06-17T04:57:37.209Z,17.10
2023-06-17T05:00:11.599Z,17.42
2023-06-17T05:02:43.935Z,17.17
2023-06-17T05:05:16.084Z,17.77
2023-06-17T05:07:48.291Z,20.02
2023-06-17T05:10:22.629Z,17.35
2023-06-17T05:12:55.007Z,17.10
2023-06-17T05:15:27.068Z,17.20
2023-06-17T05:17:59.202Z,15.98
2023-06-17T05:20:31.421Z,16.33
2023-06-17T05:23:03.576Z,13.80
2023-06-17T05:25:35.662Z,17.40
2023-06-17T05:31:59.783Z,14.05
2023-06-17T05:34:37.001Z,15.27
2023-06-17T05:37:09.122Z,15.88
2023-06-17T05:39:41.420Z,13.73
2023-06-17T05:42:13.858Z,16.23
2023-06-17T05:44:46.364Z,15.45
2023-06-17T05:47:20.893Z,15.80
2023-06-17T05:49:53.161Z,13.18
2023-06-17T05:52:25.674Z,13.07
2023-06-17T05:54:57.917Z,14.57
2023-06-17T05:57:30.015Z,12.07
2023-06-17T06:00:02.173Z,15.88
2023-06-17T06:02:34.290Z,16.23
2023-06-17T06:05:07.636Z,13.68
2023-06-17T06:07:39.749Z,16.17
2023-06-17T06:10:12.958Z,15.13
2023-06-17T06:12:45.138Z,13.73
2023-06-17T06:15:17.210Z,14.30
2023-06-17T06:17:49.362Z,14.75
2023-06-17T06:20:21.865Z,13.90
2023-06-17T06:22:54.665Z,14.60
2023-06-17T06:25:26.843Z,14.30
2023-06-17T06:28:00.057Z,13.00
2023-06-17T06:30:32.209Z,11.93
2023-06-17T06:33:04.495Z,13.25
2023-06-17T06:35:37.049Z,14.63
2023-06-17T06:38:09.242Z,14.88
2023-06-17T06:40:41.801Z,18.02
2023-06-17T06:43:13.958Z,16.45
2023-06-17T06:45:46.067Z,13.95
2023-06-17T06:48:18.307Z,15.48
2023-06-17T06:50:50.394Z,15.45
2023-06-17T06:53:25.345Z,13.77
2023-06-17T06:55:57.979Z,16.33
2023-06-17T06:58:30.111Z,14.25
2023-06-17T07:01:02.231Z,14.68
2023-06-17T07:03:34.526Z,16.38
2023-06-17T07:06:06.674Z,16.00
2023-06-17T07:08:38.813Z,16.50
2023-06-17T07:11:11.016Z,15.65
2023-06-17T07:13:43.264Z,15.77
2023-06-17T07:16:15.846Z,17.55
2023-06-17T07:18:48.019Z,15.50
2023-06-17T07:21:20.147Z,16.13
2023-06-17T07:23:52.606Z,16.20
2023-06-17T07:26:24.755Z,15.38
2023-06-17T07:28:56.955Z,14.38
2023-06-17T07:31:31.939Z,14.55
2023-06-17T07:34:04.289Z,14.02
2023-06-17T07:36:36.373Z,17.98
2023-06-17T07:39:08.977Z,16.95
2023-06-17T07:41:41.128Z,17.35
2023-06-17T07:44:38.276Z,16.58
2023-06-17T07:47:10.364Z,15.82
2023-06-17T07:49:42.516Z,16.63
2023-06-17T07:52:14.690Z,16.02
2023-06-17T07:54:49.137Z,15.73
2023-06-17T07:57:21.258Z,16.70
2023-06-17T07:59:53.577Z,16.95
2023-06-17T08:02:25.971Z,18.15
2023-06-17T08:04:58.091Z,17.80
2023-06-17T08:07:30.160Z,19.50
2023-06-17T08:10:02.705Z,19.98
2023-06-17T08:12:34.824Z,18.02
2023-06-17T08:15:08.126Z,20.88
2023-06-17T08:17:40.325Z,18.10
2023-06-17T08:20:13.016Z,18.08
2023-06-17T08:22:45.199Z,19.35
2023-06-17T08:25:47.171Z,18.58
2023-06-17T08:28:19.547Z,18.60
2023-06-17T08:31:32.366Z,20.17
2023-06-17T08:34:04.556Z,18.63
2023-06-17T08:36:38.686Z,18.63
2023-06-17T08:39:12.089Z,18.00
2023-06-17T08:41:45.422Z,16.58
2023-06-17T08:44:19.841Z,14.80
2023-06-17T08:46:52.981Z,15.63
2023-06-17T08:49:28.136Z,15.55
2023-06-17T08:52:02.089Z,15.65
2023-06-17T08:59:47.860Z,17.52
2023-06-17T09:08:43.645Z,20.60
2023-06-17T09:11:15.967Z,20.10
2023-06-17T09:13:51.840Z,19.23
2023-06-17T09:16:28.144Z,17.45
2023-06-17T09:19:06.395Z,88.03
2023-06-17T09:21:38.557Z,20.20
2023-06-17T09:24:11.133Z,16.70
2023-06-17T09:26:45.367Z,17.75
2023-06-17T09:29:18.019Z,19.35
2023-06-17T09:32:46.290Z,16.38
2023-06-17T09:35:18.822Z,15.85
2023-06-17T09:38:06.349Z,15.30
2023-06-17T09:41:21.753Z,15.98
2023-06-17T09:43:55.969Z,16.15
2023-06-17T09:47:26.587Z,17.83
2023-06-17T09:50:07.035Z,17.08
2023-06-17T09:52:41.499Z,17.02
2023-06-17T09:55:14.113Z,16.27
2023-06-17T09:57:47.408Z,15.15
2023-06-17T10:00:21.268Z,16.48
2023-06-17T10:02:54.932Z,15.10
2023-06-17T10:05:28.599Z,14.38
2023-06-17T10:08:01.092Z,17.20
2023-06-17T10:10:33.422Z,16.02
2023-06-17T10:13:09.207Z,16.50
2023-06-17T10:15:41.941Z,14.60
2023-06-17T10:18:17.816Z,17.73
2023-06-17T10:20:52.126Z,15.45
2023-06-17T10:23:24.790Z,17.50
2023-06-17T10:25:56.940Z,16.88
2023-06-17T10:28:45.916Z,16.85
2023-06-17T10:31:31.444Z,16.15
2023-06-17T10:34:07.613Z,16.67
2023-06-17T10:36:39.769Z,15.55
2023-06-17T10:39:13.850Z,14.88
2023-06-17T10:42:02.524Z,15.13
2023-06-17T10:44:38.580Z,14.95
2023-06-17T10:47:23.392Z,12.77
2023-06-17T10:49:56.094Z,14.88
2023-06-17T10:52:31.311Z,15.00
2023-06-17T10:55:04.321Z,14.13
2023-06-17T10:57:38.526Z,14.43
2023-06-17T11:00:13.449Z,14.13
2023-06-17T11:02:45.960Z,12.98
2023-06-17T11:05:24.812Z,12.80
2023-06-17T11:07:59.683Z,12.45
2023-06-17T11:10:32.726Z,11.35
2023-06-17T11:13:05.974Z,11.23
2023-06-17T11:15:38.123Z,9.80
2023-06-17T11:18:10.670Z,10.93
2023-06-17T11:20:43.898Z,10.05
2023-06-17T11:23:16.478Z,9.05
2023-06-17T11:25:54.279Z,10.63
2023-06-17T11:28:26.726Z,8.85
2023-06-17T11:30:59.333Z,8.25
2023-06-17T11:33:36.189Z,8.45
2023-06-17T11:36:14.332Z,8.75
2023-06-17T11:38:48.044Z,8.25
2023-06-17T11:41:20.660Z,7.75
2023-06-17T11:43:53.306Z,9.60
2023-06-17T11:46:26.187Z,8.82
2023-06-17T11:48:59.378Z,8.75
2023-06-17T11:51:33.688Z,8.63
2023-06-17T11:54:07.392Z,8.82
2023-06-17T11:56:39.627Z,8.18
2023-06-17T11:59:16.498Z,7.35
2023-06-17T12:01:48.934Z,8.25
2023-06-17T12:04:21.559Z,7.85
2023-06-17T12:06:55.055Z,8.43
2023-06-17T12:09:27.569Z,7.43
2023-06-17T12:12:00.740Z,7.97
2023-06-17T12:15:39.116Z,7.63
2023-06-17T12:18:15.260Z,8.05
2023-06-17T12:20:51.664Z,6.93
2023-06-17T12:23:23.874Z,6.70
2023-06-17T12:25:56.118Z,6.82
2023-06-17T12:28:28.452Z,6.85
2023-06-17T12:31:00.798Z,6.88
2023-06-17T12:33:33.039Z,6.95
2023-06-17T12:36:08.685Z,6.47
2023-06-17T12:38:41.194Z,5.50
2023-06-17T12:41:13.765Z,6.47
2023-06-17T12:46:21.687Z,6.47
2023-06-17T12:48:53.853Z,5.70
2023-06-17T12:51:26.127Z,5.63
2023-06-17T12:53:58.635Z,6.03
2023-06-17T12:56:31.383Z,6.05
2023-06-17T12:59:05.944Z,6.18
2023-06-17T13:01:39.462Z,5.13
2023-06-17T13:04:11.809Z,5.70
2023-06-17T13:06:45.597Z,5.80
2023-06-17T13:09:39.210Z,5.53
2023-06-17T13:12:12.643Z,5.22
2023-06-17T13:14:45.053Z,5.38
2023-06-17T13:17:18.063Z,4.78
2023-06-17T13:23:54.532Z,4.93
2023-06-17T13:26:30.770Z,4.75
2023-06-17T13:32:19.842Z,6.00
2023-06-17T13:34:54.996Z,6.22
2023-06-17T13:37:27.419Z,5.22
2023-06-17T13:40:09.616Z,5.60
2023-06-17T13:42:44.433Z,5.75
2023-06-17T13:45:16.859Z,5.20
2023-06-17T13:47:49.052Z,6.25
2023-06-17T13:50:21.907Z,6.50
2023-06-17T13:53:17.080Z,5.57
2023-06-17T13:55:49.970Z,7.18
2023-06-17T13:58:22.243Z,6.70
2023-06-17T14:00:54.869Z,7.60
2023-06-17T14:03:27.145Z,7.28
2023-06-17T14:05:59.874Z,6.00
2023-06-17T14:08:37.649Z,7.28
2023-06-17T14:11:13.150Z,6.80
2023-06-17T14:13:45.273Z,6.25
2023-06-17T14:16:17.630Z,6.55
2023-06-17T14:18:51.993Z,6.07
2023-06-17T14:21:36.011Z,6.72
2023-06-17T14:24:11.065Z,7.13
2023-06-17T14:26:46.256Z,6.57
2023-06-17T14:29:18.561Z,6.63
2023-06-17T14:31:50.716Z,7.38
2023-06-17T14:34:23.083Z,6.70
2023-06-17T14:36:55.327Z,6.82
2023-06-17T14:39:28.228Z,6.25
2023-06-17T14:42:00.588Z,6.47
2023-06-17T14:44:32.888Z,7.15
2023-06-17T14:47:07.682Z,7.30
2023-06-17T14:49:39.933Z,6.88
2023-06-17T14:52:13.400Z,5.63
2023-06-17T14:54:46.040Z,6.35
2023-06-17T14:57:18.313Z,6.55
2023-06-17T14:59:50.850Z,5.82
2023-06-17T15:02:49.771Z,5.60
2023-06-17T15:05:37.728Z,6.18
2023-06-17T15:08:09.874Z,7.00
2023-06-17T15:10:45.589Z,6.38
2023-06-17T15:13:17.724Z,7.32
2023-06-17T15:15:49.863Z,7.10
2023-06-17T15:19:40.133Z,5.82
2023-06-17T15:22:12.321Z,6.82
2023-06-17T15:24:45.012Z,7.07
2023-06-17T15:27:17.298Z,6.63
2023-06-17T15:29:49.404Z,7.35
2023-06-17T15:36:14.075Z,6.40
2023-06-17T15:42:28.960Z,7.22
2023-06-17T15:45:01.140Z,7.65
2023-06-17T15:47:33.439Z,6.97
2023-06-17T15:50:06.359Z,8.15
2023-06-17T15:52:38.581Z,7.90
2023-06-17T15:55:11.478Z,6.95
2023-06-17T15:57:43.628Z,7.25
2023-06-17T16:00:16.365Z,6.63
2023-06-17T16:02:48.623Z,7.18
2023-06-17T16:05:21.058Z,6.88
2023-06-17T16:07:53.213Z,6.43
2023-06-17T16:10:27.702Z,6.22
2023-06-17T16:12:59.918Z,6.32
2023-06-17T16:15:33.105Z,5.78
2023-06-17T16:18:05.398Z,5.90
2023-06-17T16:20:37.770Z,6.50
2023-06-17T16:23:10.037Z,5.82
2023-06-17T16:25:54.714Z,6.25
2023-06-17T16:28:27.569Z,7.60
2023-06-17T16:30:59.705Z,6.28
2023-06-17T16:33:32.003Z,5.75
2023-06-17T16:36:04.414Z,5.45
2023-06-17T16:41:59.067Z,6.10
2023-06-17T16:44:31.420Z,5.10
2023-06-17T16:47:03.764Z,5.40
2023-06-17T16:49:37.288Z,5.20
2023-06-17T16:52:09.930Z,5.75
2023-06-17T16:54:42.209Z,5.85
2023-06-17T16:57:14.458Z,5.95
2023-06-17T16:59:48.645Z,5.80
2023-06-17T17:02:21.105Z,5.65
2023-06-17T17:05:41.809Z,5.93
2023-06-17T17:08:16.858Z,6.20
2023-06-17T17:10:49.166Z,6.15
2023-06-17T17:13:21.514Z,7.03
2023-06-17T17:15:53.791Z,6.45
2023-06-17T17:18:28.927Z,6.28
2023-06-17T17:21:01.218Z,6.82
2023-06-17T17:23:33.740Z,5.65
2023-06-17T17:26:06.002Z,6.15
2023-06-17T17:28:38.132Z,5.63
2023-06-17T17:34:55.945Z,8.15
2023-06-17T17:37:28.778Z,8.25
2023-06-17T17:40:01.253Z,8.70
2023-06-17T17:42:33.403Z,9.60
2023-06-17T17:45:06.497Z,9.43
2023-06-17T17:47:38.831Z,9.80
2023-06-17T17:50:13.201Z,10.70
2023-06-17T17:52:46.048Z,11.65
2023-06-17T17:58:38.850Z,9.93
2023-06-17T18:01:11.010Z,11.52
2023-06-17T18:03:45.940Z,11.50
2023-06-17T18:06:19.601Z,11.18
2023-06-17T18:08:52.223Z,12.23
2023-06-17T18:11:24.687Z,12.23
2023-06-17T18:13:58.535Z,12.60
2023-06-17T18:16:31.197Z,12.18
2023-06-17T18:19:03.650Z,13.43
2023-06-17T18:21:36.378Z,12.35
2023-06-17T18:24:09.560Z,13.18
2023-06-17T18:26:41.884Z,12.98
2023-06-17T18:29:14.064Z,12.75
2023-06-17T18:31:52.087Z,12.27
2023-06-17T18:34:27.353Z,14.38
2023-06-17T18:36:59.560Z,14.07
2023-06-17T18:39:35.033Z,13.07
2023-06-17T18:42:07.383Z,12.05
2023-06-17T18:44:39.745Z,11.73
2023-06-17T18:47:12.469Z,12.20
2023-06-17T18:49:44.831Z,13.07
2023-06-17T18:52:17.375Z,14.60
2023-06-17T18:54:49.797Z,12.27
2023-06-17T18:57:22.141Z,11.45
2023-06-17T18:59:54.347Z,12.57
2023-06-17T19:02:28.267Z,11.88
2023-06-17T19:05:06.221Z,14.10
2023-06-17T19:07:42.304Z,13.02
2023-06-17T19:10:14.604Z,12.52
2023-06-17T19:12:49.515Z,11.60
2023-06-17T19:15:22.097Z,12.60
2023-06-17T19:17:54.307Z,11.70
2023-06-17T19:20:26.866Z,12.38
2023-06-17T19:22:59.175Z,12.93
2023-06-17T19:25:31.872Z,12.32
2023-06-17T19:28:04.396Z,13.05
2023-06-17T19:30:36.806Z,13.68
2023-06-17T19:33:09.046Z,12.23
2023-06-17T19:35:41.328Z,13.52
2023-06-17T19:38:16.161Z,11.40
2023-06-17T19:40:48.424Z,12.00
2023-06-17T19:43:23.916Z,11.57
2023-06-17T19:45:56.259Z,11.15
2023-06-17T19:48:28.922Z,12.77
2023-06-17T19:51:01.140Z,11.90
2023-06-17T19:53:33.336Z,12.63
2023-06-17T19:56:10.470Z,12.70
2023-06-17T19:58:44.434Z,12.30
2023-06-17T20:01:18.875Z,13.35
2023-06-17T20:03:51.247Z,13.18
2023-06-17T20:06:25.661Z,11.18
2023-06-17T20:09:11.780Z,11.93
2023-06-17T20:11:44.111Z,13.93
2023-06-17T20:14:17.450Z,13.45
2023-06-17T20:16:50.183Z,13.63
2023-06-17T20:19:22.890Z,13.40
2023-06-17T20:21:55.145Z,12.77
2023-06-17T20:24:27.742Z,13.05
2023-06-17T20:27:00.119Z,13.32
2023-06-17T20:29:32.496Z,13.77
2023-06-17T20:32:05.808Z,14.02
2023-06-17T20:35:42.712Z,14.30
2023-06-17T21:17:59.679Z,17.00
2023-06-17T21:20:32.016Z,17.63
2023-06-17T21:23:04.501Z,16.90
2023-06-17T21:25:36.740Z,16.05
2023-06-17T21:28:08.953Z,16.67
2023-06-17T21:30:41.393Z,16.65
2023-06-17T21:33:14.122Z,18.08
2023-06-17T21:35:46.423Z,17.38
2023-06-17T21:38:18.697Z,17.23
2023-06-17T21:40:51.100Z,25.52
2023-06-17T21:43:23.217Z,17.55
2023-06-17T21:45:55.374Z,17.00
2023-06-17T21:48:28.248Z,15.05
2023-06-17T21:51:00.609Z,16.80
2023-06-17T21:53:32.738Z,17.25
2023-06-17T21:56:05.183Z,16.77
2023-06-17T21:58:37.327Z,18.00
2023-06-17T22:01:09.878Z,15.90
2023-06-17T22:03:42.446Z,16.65
2023-06-17T22:06:14.935Z,16.95
2023-06-17T22:08:47.096Z,17.27
2023-06-17T22:11:19.320Z,18.92
2023-06-17T22:13:51.727Z,16.02
2023-06-17T22:16:24.125Z,17.92
2023-06-17T22:18:57.804Z,17.75
2023-06-17T22:21:30.106Z,18.42
2023-06-17T22:24:02.536Z,17.02
2023-06-17T22:26:34.910Z,17.38
2023-06-17T22:29:07.057Z,18.17
2023-06-17T22:31:39.311Z,17.92
2023-06-17T22:34:11.532Z,16.30
2023-06-17T22:36:43.678Z,16.40
2023-06-17T22:39:15.826Z,15.68
2023-06-17T22:41:48.020Z,16.95
2023-06-17T22:44:23.562Z,16.65
2023-06-17T22:46:56.042Z,16.98
2023-06-17T22:49:28.217Z,16.13
2023-06-17T22:52:00.565Z,15.27
2023-06-17T22:54:34.147Z,17.42
2023-06-17T22:57:07.289Z,17.25
2023-06-17T22:59:39.441Z,16.63
2023-06-17T23:02:13.501Z,17.95
2023-06-17T23:04:45.783Z,17.02
2023-06-17T23:07:19.314Z,17.52
2023-06-17T23:09:51.570Z,18.75
2023-06-17T23:12:23.839Z,18.10
2023-06-17T23:14:56.422Z,19.23
2023-06-17T23:17:28.707Z,17.48
2023-06-17T23:20:01.796Z,19.42
2023-06-17T23:22:34.983Z,18.42
2023-06-17T23:25:08.745Z,17.63
2023-06-17T23:27:41.965Z,18.42
2023-06-17T23:30:14.847Z,20.20
2023-06-17T23:32:48.150Z,17.63
2023-06-17T23:35:21.653Z,19.23
2023-06-17T23:37:53.773Z,19.75
2023-06-17T23:40:26.052Z,19.10
2023-06-17T23:42:58.213Z,17.58
2023-06-17T23:45:30.776Z,19.83
2023-06-17T23:48:03.208Z,19.77
2023-06-17T23:50:35.622Z,20.00
2023-06-17T23:53:07.824Z,19.70
2023-06-17T23:55:40.012Z,20.77
2023-06-17T23:58:12.504Z,18.38
